Duxbury, Massachusetts
Current Conditions -  °F | °C
As of 1:52 PM on Tuesday 21 Oct 2014 (Local Time) from KPYM Reporting Station
Overcast Overcast  
Wind Chill: 59°   Ceiling: 2000
Heat Index: 59°   Visibility: 10mi
Dew Point: 55°   Wind: 5mph
Humidity: 87%   Direction: 90°E
Pressure: 29.92"   Gusts: NA
Location:  42.04°N, 70.67°W
Report Text: KPYM 211752Z AUTO 09004KT 10SM BKN020 BKN025 OVC035 15/13 A2992 RMK AO2 RAE1657B13E45 SLP131 P0000 60000 T01500128 10167 20117 56012
Loading
Personal Weather Stations






























Interactive Weather Map New forecast layout! Learn more

10-Day Weather Forecast

Advertisements
Track Severe Weather on mobile